sensor_id;sensor_type;location;lat;lon;timestamp;pressure;altitude;pressure_sealevel;temperature;humidity
42633;BME280;28261;53.304;-6.284;2023-02-02T00:00:49;101924.06;;;7.98;100.00
42633;BME280;28261;53.304;-6.284;2023-02-02T00:02:53;101922.38;;;7.97;100.00
42633;BME280;28261;53.304;-6.284;2023-02-02T00:04:57;101924.19;;;7.95;100.00
42633;BME280;28261;53.304;-6.284;2023-02-02T00:07:02;101929.53;;;7.93;100.00
42633;BME280;28261;53.304;-6.284;2023-02-02T00:09:08;101913.75;;;7.92;100.00
42633;BME280;28261;53.304;-6.284;2023-02-02T00:11:15;101933.16;;;7.91;100.00
42633;BME280;28261;53.304;-6.284;2023-02-02T00:13:19;101924.44;;;7.89;100.00
42633;BME280;28261;53.304;-6.284;2023-02-02T00:15:24;101929.75;;;7.87;100.00
42633;BME280;28261;53.304;-6.284;2023-02-02T00:17:28;101923.66;;;7.85;100.00
42633;BME280;28261;53.304;-6.284;2023-02-02T00:19:32;101919.34;;;7.83;100.00
42633;BME280;28261;53.304;-6.284;2023-02-02T00:21:36;101929.97;;;7.81;100.00
42633;BME280;28261;53.304;-6.284;2023-02-02T00:23:40;101917.75;;;7.78;100.00
42633;BME280;28261;53.304;-6.284;2023-02-02T00:25:48;101923.16;;;7.75;100.00
42633;BME280;28261;53.304;-6.284;2023-02-02T00:27:54;101928.44;;;7.75;100.00
42633;BME280;28261;53.304;-6.284;2023-02-02T00:29:58;101930.31;;;7.72;100.00
42633;BME280;28261;53.304;-6.284;2023-02-02T00:32:02;101919.81;;;7.70;100.00
42633;BME280;28261;53.304;-6.284;2023-02-02T00:34:06;101933.06;;;7.69;100.00
42633;BME280;28261;53.304;-6.284;2023-02-02T00:36:09;101929.56;;;7.68;100.00
42633;BME280;28261;53.304;-6.284;2023-02-02T00:38:14;101937.50;;;7.68;100.00
42633;BME280;28261;53.304;-6.284;2023-02-02T00:40:18;101927.78;;;7.69;100.00
42633;BME280;28261;53.304;-6.284;2023-02-02T00:42:21;101922.50;;;7.69;100.00
42633;BME280;28261;53.304;-6.284;2023-02-02T00:44:27;101923.34;;;7.69;100.00
42633;BME280;28261;53.304;-6.284;2023-02-02T00:46:48;101916.38;;;7.68;100.00
42633;BME280;28261;53.304;-6.284;2023-02-02T00:48:52;101924.22;;;7.70;100.00
42633;BME280;28261;53.304;-6.284;2023-02-02T00:50:56;101921.53;;;7.71;100.00
42633;BME280;28261;53.304;-6.284;2023-02-02T00:53:00;101921.47;;;7.73;100.00
42633;BME280;28261;53.304;-6.284;2023-02-02T00:55:05;101931.97;;;7.74;100.00
42633;BME280;28261;53.304;-6.284;2023-02-02T00:57:11;101928.31;;;7.78;100.00
42633;BME280;28261;53.304;-6.284;2023-02-02T00:59:15;101933.53;;;7.80;100.00
42633;BME280;28261;53.304;-6.284;2023-02-02T01:01:21;101922.84;;;7.83;100.00
42633;BME280;28261;53.304;-6.284;2023-02-02T01:03:25;101921.88;;;7.86;100.00
42633;BME280;28261;53.304;-6.284;2023-02-02T01:05:28;101920.97;;;7.87;100.00
42633;BME280;28261;53.304;-6.284;2023-02-02T01:07:32;101914.72;;;7.89;100.00
42633;BME280;28261;53.304;-6.284;2023-02-02T01:09:35;101917.31;;;7.91;100.00
42633;BME280;28261;53.304;-6.284;2023-02-02T01:11:39;101915.41;;;7.94;100.00
42633;BME280;28261;53.304;-6.284;2023-02-02T01:13:42;101917.16;;;7.95;100.00
42633;BME280;28261;53.304;-6.284;2023-02-02T01:15:46;101911.81;;;7.97;100.00
42633;BME280;28261;53.304;-6.284;2023-02-02T01:17:51;101916.16;;;7.98;100.00
42633;BME280;28261;53.304;-6.284;2023-02-02T01:19:55;101915.25;;;7.99;100.00
42633;BME280;28261;53.304;-6.284;2023-02-02T01:21:59;101921.44;;;7.98;100.00
42633;BME280;28261;53.304;-6.284;2023-02-02T01:24:04;101922.31;;;7.99;100.00
42633;BME280;28261;53.304;-6.284;2023-02-02T01:26:10;101915.31;;;7.97;100.00
42633;BME280;28261;53.304;-6.284;2023-02-02T01:28:13;101916.16;;;7.98;100.00
42633;BME280;28261;53.304;-6.284;2023-02-02T01:30:17;101923.16;;;7.99;100.00
42633;BME280;28261;53.304;-6.284;2023-02-02T01:32:20;101909.97;;;7.99;100.00
42633;BME280;28261;53.304;-6.284;2023-02-02T01:34:25;101908.13;;;8.01;100.00
42633;BME280;28261;53.304;-6.284;2023-02-02T01:36:29;101903.69;;;8.02;100.00
42633;BME280;28261;53.304;-6.284;2023-02-02T01:38:32;101904.56;;;8.02;100.00
42633;BME280;28261;53.304;-6.284;2023-02-02T01:40:36;101901.06;;;8.02;100.00
42633;BME280;28261;53.304;-6.284;2023-02-02T01:42:39;101908.13;;;8.01;100.00
42633;BME280;28261;53.304;-6.284;2023-02-02T01:45:17;101902.84;;;8.01;100.00
42633;BME280;28261;53.304;-6.284;2023-02-02T01:47:26;101898.34;;;8.03;100.00
42633;BME280;28261;53.304;-6.284;2023-02-02T01:49:31;101903.56;;;8.05;100.00
42633;BME280;28261;53.304;-6.284;2023-02-02T01:51:40;101904.41;;;8.07;100.00
42633;BME280;28261;53.304;-6.284;2023-02-02T01:53:47;101899.06;;;8.08;100.00
42633;BME280;28261;53.304;-6.284;2023-02-02T01:55:52;101892.88;;;8.09;100.00
42633;BME280;28261;53.304;-6.284;2023-02-02T01:57:57;101897.19;;;8.10;100.00
42633;BME280;28261;53.304;-6.284;2023-02-02T02:00:06;101902.44;;;8.12;100.00
42633;BME280;28261;53.304;-6.284;2023-02-02T02:02:16;101905.03;;;8.13;100.00
42633;BME280;28261;53.304;-6.284;2023-02-02T02:04:22;101900.53;;;8.16;100.00
42633;BME280;28261;53.304;-6.284;2023-02-02T02:06:28;101893.50;;;8.16;100.00
42633;BME280;28261;53.304;-6.284;2023-02-02T02:08:32;101901.41;;;8.16;100.00
42633;BME280;28261;53.304;-6.284;2023-02-02T02:10:37;101896.97;;;8.17;100.00
42633;BME280;28261;53.304;-6.284;2023-02-02T02:12:41;101893.44;;;8.18;100.00
42633;BME280;28261;53.304;-6.284;2023-02-02T02:14:48;101894.22;;;8.20;100.00
42633;BME280;28261;53.304;-6.284;2023-02-02T02:17:20;101895.13;;;8.19;100.00
42633;BME280;28261;53.304;-6.284;2023-02-02T02:22:24;101885.31;;;8.22;100.00
42633;BME280;28261;53.304;-6.284;2023-02-02T02:28:15;101888.78;;;8.24;100.00
42633;BME280;28261;53.304;-6.284;2023-02-02T02:31:01;101875.56;;;8.24;100.00
42633;BME280;28261;53.304;-6.284;2023-02-02T02:33:14;101881.63;;;8.26;100.00
42633;BME280;28261;53.304;-6.284;2023-02-02T02:35:30;101871.06;;;8.26;100.00
42633;BME280;28261;53.304;-6.284;2023-02-02T02:37:40;101872.81;;;8.27;100.00
42633;BME280;28261;53.304;-6.284;2023-02-02T02:39:49;101863.00;;;8.29;100.00
42633;BME280;28261;53.304;-6.284;2023-02-02T02:42:01;101863.84;;;8.32;100.00
42633;BME280;28261;53.304;-6.284;2023-02-02T02:44:10;101854.13;;;8.32;100.00
42633;BME280;28261;53.304;-6.284;2023-02-02T02:46:15;101854.94;;;8.34;100.00
42633;BME280;28261;53.304;-6.284;2023-02-02T02:48:20;101851.41;;;8.34;100.00
42633;BME280;28261;53.304;-6.284;2023-02-02T02:50:24;101844.34;;;8.34;100.00
42633;BME280;28261;53.304;-6.284;2023-02-02T02:52:27;101845.16;;;8.36;100.00
42633;BME280;28261;53.304;-6.284;2023-02-02T02:54:34;101843.31;;;8.38;100.00
42633;BME280;28261;53.304;-6.284;2023-02-02T02:56:53;101844.16;;;8.39;100.00
42633;BME280;28261;53.304;-6.284;2023-02-02T02:59:02;101847.63;;;8.41;100.00
42633;BME280;28261;53.304;-6.284;2023-02-02T03:01:09;101850.25;;;8.41;100.00
42633;BME280;28261;53.304;-6.284;2023-02-02T03:03:28;101849.28;;;8.43;100.00
42633;BME280;28261;53.304;-6.284;2023-02-02T03:05:40;101857.19;;;8.45;100.00
42633;BME280;28261;53.304;-6.284;2023-02-02T03:07:49;101852.75;;;8.45;100.00
42633;BME280;28261;53.304;-6.284;2023-02-02T03:09:55;101843.84;;;8.48;100.00
42633;BME280;28261;53.304;-6.284;2023-02-02T03:12:01;101842.91;;;8.49;100.00
42633;BME280;28261;53.304;-6.284;2023-02-02T03:14:05;101845.56;;;8.49;100.00
42633;BME280;28261;53.304;-6.284;2023-02-02T03:16:10;101829.72;;;8.49;100.00
42633;BME280;28261;53.304;-6.284;2023-02-02T03:18:16;101835.84;;;8.50;100.00
42633;BME280;28261;53.304;-6.284;2023-02-02T03:20:23;101841.06;;;8.51;100.00
42633;BME280;28261;53.304;-6.284;2023-02-02T03:22:26;101833.94;;;8.53;100.00
42633;BME280;28261;53.304;-6.284;2023-02-02T03:24:29;101848.84;;;8.54;100.00
42633;BME280;28261;53.304;-6.284;2023-02-02T03:26:33;101847.09;;;8.55;100.00
42633;BME280;28261;53.304;-6.284;2023-02-02T03:28:37;101852.31;;;8.56;100.00
42633;BME280;28261;53.304;-6.284;2023-02-02T03:30:41;101849.59;;;8.58;100.00
42633;BME280;28261;53.304;-6.284;2023-02-02T03:32:45;101848.63;;;8.60;100.00
42633;BME280;28261;53.304;-6.284;2023-02-02T03:34:49;101852.13;;;8.61;100.00
42633;BME280;28261;53.304;-6.284;2023-02-02T03:36:54;101845.91;;;8.62;100.00
42633;BME280;28261;53.304;-6.284;2023-02-02T03:38:58;101854.72;;;8.62;100.00
42633;BME280;28261;53.304;-6.284;2023-02-02T03:41:01;101849.38;;;8.64;100.00
42633;BME280;28261;53.304;-6.284;2023-02-02T03:43:05;101850.22;;;8.64;100.00
42633;BME280;28261;53.304;-6.284;2023-02-02T03:45:09;101851.06;;;8.65;100.00
42633;BME280;28261;53.304;-6.284;2023-02-02T03:47:13;101851.88;;;8.67;100.00
42633;BME280;28261;53.304;-6.284;2023-02-02T03:49:18;101859.81;;;8.67;100.00
42633;BME280;28261;53.304;-6.284;2023-02-02T03:51:22;101858.91;;;8.68;100.00
42633;BME280;28261;53.304;-6.284;2023-02-02T03:53:26;101860.59;;;8.69;100.00
42633;BME280;28261;53.304;-6.284;2023-02-02T03:55:30;101856.19;;;8.70;100.00
42633;BME280;28261;53.304;-6.284;2023-02-02T03:57:33;101866.75;;;8.70;100.00
42633;BME280;28261;53.304;-6.284;2023-02-02T03:59:37;101857.94;;;8.69;100.00
42633;BME280;28261;53.304;-6.284;2023-02-02T04:01:41;101867.59;;;8.70;100.00
42633;BME280;28261;53.304;-6.284;2023-02-02T04:03:44;101857.91;;;8.71;100.00
42633;BME280;28261;53.304;-6.284;2023-02-02T04:05:48;101866.75;;;8.70;100.00
42633;BME280;28261;53.304;-6.284;2023-02-02T04:07:52;101857.94;;;8.69;100.00
42633;BME280;28261;53.304;-6.284;2023-02-02T04:09:57;101855.31;;;8.69;100.00
42633;BME280;28261;53.304;-6.284;2023-02-02T04:12:00;101853.59;;;8.68;100.00
42633;BME280;28261;53.304;-6.284;2023-02-02T04:14:04;101854.53;;;8.67;100.00
42633;BME280;28261;53.304;-6.284;2023-02-02T04:16:08;101846.59;;;8.67;100.00
42633;BME280;28261;53.304;-6.284;2023-02-02T04:18:12;101854.53;;;8.67;100.00
42633;BME280;28261;53.304;-6.284;2023-02-02T04:20:16;101852.72;;;8.68;100.00
42633;BME280;28261;53.304;-6.284;2023-02-02T04:22:20;101849.22;;;8.67;100.00
42633;BME280;28261;53.304;-6.284;2023-02-02T04:24:23;101854.53;;;8.67;100.00
42633;BME280;28261;53.304;-6.284;2023-02-02T04:26:28;101841.25;;;8.69;100.00
42633;BME280;28261;53.304;-6.284;2023-02-02T04:28:32;101845.59;;;8.70;100.00
42633;BME280;28261;53.304;-6.284;2023-02-02T04:30:36;101843.88;;;8.69;100.00
42633;BME280;28261;53.304;-6.284;2023-02-02T04:32:40;101849.09;;;8.70;100.00
42633;BME280;28261;53.304;-6.284;2023-02-02T04:34:44;101844.69;;;8.71;100.00
42633;BME280;28261;53.304;-6.284;2023-02-02T04:36:47;101854.38;;;8.70;100.00
42633;BME280;28261;53.304;-6.284;2023-02-02T04:38:52;101843.81;;;8.70;100.00
42633;BME280;28261;53.304;-6.284;2023-02-02T04:40:56;101847.38;;;8.69;100.00
42633;BME280;28261;53.304;-6.284;2023-02-02T04:43:01;101850.00;;;8.69;100.00
42633;BME280;28261;53.304;-6.284;2023-02-02T04:45:06;101846.47;;;8.70;100.00
42633;BME280;28261;53.304;-6.284;2023-02-02T04:47:09;101842.91;;;8.71;100.00
42633;BME280;28261;53.304;-6.284;2023-02-02T04:49:13;101838.53;;;8.70;100.00
42633;BME280;28261;53.304;-6.284;2023-02-02T04:51:16;101840.38;;;8.68;100.00
42633;BME280;28261;53.304;-6.284;2023-02-02T04:53:20;101835.94;;;8.69;100.00
42633;BME280;28261;53.304;-6.284;2023-02-02T04:55:24;101831.56;;;8.68;100.00
42633;BME280;28261;53.304;-6.284;2023-02-02T04:57:27;101834.28;;;8.66;100.00
42633;BME280;28261;53.304;-6.284;2023-02-02T04:59:32;101830.72;;;8.67;100.00
42633;BME280;28261;53.304;-6.284;2023-02-02T05:01:36;101835.19;;;8.65;100.00
42633;BME280;28261;53.304;-6.284;2023-02-02T05:03:39;101840.50;;;8.65;100.00
42633;BME280;28261;53.304;-6.284;2023-02-02T05:05:43;101842.34;;;8.63;100.00
42633;BME280;28261;53.304;-6.284;2023-02-02T05:07:47;101835.34;;;8.62;100.00
42633;BME280;28261;53.304;-6.284;2023-02-02T05:09:50;101855.63;;;8.61;100.00
42633;BME280;28261;53.304;-6.284;2023-02-02T05:11:54;101851.19;;;8.62;100.00
42633;BME280;28261;53.304;-6.284;2023-02-02T05:13:58;101847.63;;;8.63;100.00
42633;BME280;28261;53.304;-6.284;2023-02-02T05:16:03;101855.50;;;8.64;100.00
42633;BME280;28261;53.304;-6.284;2023-02-02T05:18:07;101858.09;;;8.66;100.00
42633;BME280;28261;53.304;-6.284;2023-02-02T05:20:11;101859.94;;;8.64;100.00
42633;BME280;28261;53.304;-6.284;2023-02-02T05:22:15;101861.78;;;8.62;100.00
42633;BME280;28261;53.304;-6.284;2023-02-02T05:24:19;101866.22;;;8.61;100.00
42633;BME280;28261;53.304;-6.284;2023-02-02T05:26:24;101869.84;;;8.59;100.00
42633;BME280;28261;53.304;-6.284;2023-02-02T05:28:28;101860.31;;;8.55;100.00
42633;BME280;28261;53.304;-6.284;2023-02-02T05:30:32;101853.44;;;8.51;100.00
42633;BME280;28261;53.304;-6.284;2023-02-02T05:32:38;101842.09;;;8.47;100.00
42633;BME280;28261;53.304;-6.284;2023-02-02T05:34:42;101848.34;;;8.44;100.00
42633;BME280;28261;53.304;-6.284;2023-02-02T05:36:46;101841.44;;;8.40;100.00
42633;BME280;28261;53.304;-6.284;2023-02-02T05:38:51;101845.91;;;8.40;100.00
42633;BME280;28261;53.304;-6.284;2023-02-02T05:40:55;101833.66;;;8.37;100.00
42633;BME280;28261;53.304;-6.284;2023-02-02T05:42:59;101836.31;;;8.37;100.00
42633;BME280;28261;53.304;-6.284;2023-02-02T05:45:03;101839.84;;;8.36;100.00
42633;BME280;28261;53.304;-6.284;2023-02-02T05:47:08;101839.78;;;8.38;100.00
42633;BME280;28261;53.304;-6.284;2023-02-02T05:49:14;101823.91;;;8.39;100.00
42633;BME280;28261;53.304;-6.284;2023-02-02T05:51:20;101822.97;;;8.40;100.00
42633;BME280;28261;53.304;-6.284;2023-02-02T05:53:24;101827.41;;;8.40;100.00
42633;BME280;28261;53.304;-6.284;2023-02-02T05:55:29;101823.03;;;8.39;100.00
42633;BME280;28261;53.304;-6.284;2023-02-02T05:57:33;101832.75;;;8.38;100.00
42633;BME280;28261;53.304;-6.284;2023-02-02T05:59:37;101824.00;;;8.36;100.00
42633;BME280;28261;53.304;-6.284;2023-02-02T06:01:41;101828.38;;;8.37;100.00
42633;BME280;28261;53.304;-6.284;2023-02-02T06:03:45;101821.28;;;8.38;100.00
42633;BME280;28261;53.304;-6.284;2023-02-02T06:05:51;101828.31;;;8.39;100.00
42633;BME280;28261;53.304;-6.284;2023-02-02T06:07:55;101824.69;;;8.41;100.00
42633;BME280;28261;53.304;-6.284;2023-02-02T06:09:59;101825.50;;;8.43;100.00
42633;BME280;28261;53.304;-6.284;2023-02-02T06:12:03;101827.25;;;8.43;100.00
42633;BME280;28261;53.304;-6.284;2023-02-02T06:14:07;101806.06;;;8.44;100.00
42633;BME280;28261;53.304;-6.284;2023-02-02T06:16:11;101809.53;;;8.46;100.00
42633;BME280;28261;53.304;-6.284;2023-02-02T06:18:15;101818.38;;;8.45;100.00
42633;BME280;28261;53.304;-6.284;2023-02-02T06:20:19;101808.66;;;8.46;100.00
42633;BME280;28261;53.304;-6.284;2023-02-02T06:22:25;101809.53;;;8.46;100.00
42633;BME280;28261;53.304;-6.284;2023-02-02T06:24:30;101816.63;;;8.44;100.00
42633;BME280;28261;53.304;-6.284;2023-02-02T06:26:33;101816.63;;;8.44;100.00
42633;BME280;28261;53.304;-6.284;2023-02-02T06:28:37;101820.22;;;8.43;100.00
42633;BME280;28261;53.304;-6.284;2023-02-02T06:30:42;101820.31;;;8.40;100.00
42633;BME280;28261;53.304;-6.284;2023-02-02T06:32:46;101819.59;;;8.37;100.00
42633;BME280;28261;53.304;-6.284;2023-02-02T06:34:50;101818.84;;;8.33;100.00
42633;BME280;28261;53.304;-6.284;2023-02-02T06:36:55;101811.97;;;8.29;100.00
42633;BME280;28261;53.304;-6.284;2023-02-02T06:39:01;101816.41;;;8.28;100.00
42633;BME280;28261;53.304;-6.284;2023-02-02T06:41:07;101812.88;;;8.28;100.00
42633;BME280;28261;53.304;-6.284;2023-02-02T06:43:12;101815.66;;;8.25;100.00
42633;BME280;28261;53.304;-6.284;2023-02-02T06:45:31;101816.69;;;8.21;100.00
42633;BME280;28261;53.304;-6.284;2023-02-02T06:48:03;101805.38;;;8.17;100.00
42633;BME280;28261;53.304;-6.284;2023-02-02T06:50:12;101815.16;;;8.15;100.00
42633;BME280;28261;53.304;-6.284;2023-02-02T06:52:16;101813.44;;;8.14;100.00
42633;BME280;28261;53.304;-6.284;2023-02-02T06:54:23;101819.56;;;8.14;100.00
42633;BME280;28261;53.304;-6.284;2023-02-02T06:56:28;101807.31;;;8.13;100.00
42633;BME280;28261;53.304;-6.284;2023-02-02T06:58:32;101801.06;;;8.14;100.00
42633;BME280;28261;53.304;-6.284;2023-02-02T07:00:37;101818.66;;;8.16;100.00
42633;BME280;28261;53.304;-6.284;2023-02-02T07:02:44;101803.69;;;8.16;100.00
42633;BME280;28261;53.304;-6.284;2023-02-02T07:04:49;101812.47;;;8.17;100.00
42633;BME280;28261;53.304;-6.284;2023-02-02T07:06:54;101814.19;;;8.18;100.00
42633;BME280;28261;53.304;-6.284;2023-02-02T07:08:58;101811.53;;;8.18;100.00
42633;BME280;28261;53.304;-6.284;2023-02-02T07:11:06;101812.47;;;8.17;100.00
42633;BME280;28261;53.304;-6.284;2023-02-02T07:13:17;101811.53;;;8.18;100.00
42633;BME280;28261;53.304;-6.284;2023-02-02T07:15:21;101802.75;;;8.17;100.00
42633;BME280;28261;53.304;-6.284;2023-02-02T07:17:25;101815.94;;;8.17;100.00
42633;BME280;28261;53.304;-6.284;2023-02-02T07:19:29;101816.81;;;8.18;100.00
42633;BME280;28261;53.304;-6.284;2023-02-02T07:21:34;101808.91;;;8.18;100.00
42633;BME280;28261;53.304;-6.284;2023-02-02T07:23:38;101806.25;;;8.18;100.00
42633;BME280;28261;53.304;-6.284;2023-02-02T07:25:42;101816.91;;;8.16;100.00
42633;BME280;28261;53.304;-6.284;2023-02-02T07:27:51;101822.22;;;8.14;100.00
42633;BME280;28261;53.304;-6.284;2023-02-02T07:29:55;101826.56;;;8.16;100.00
42633;BME280;28261;53.304;-6.284;2023-02-02T07:32:00;101810.72;;;8.16;100.00
42633;BME280;28261;53.304;-6.284;2023-02-02T07:34:05;101826.56;;;8.16;100.00
42633;BME280;28261;53.304;-6.284;2023-02-02T07:36:09;101823.09;;;8.15;100.00
42633;BME280;28261;53.304;-6.284;2023-02-02T07:38:13;101819.56;;;8.14;100.00
42633;BME280;28261;53.304;-6.284;2023-02-02T07:40:18;101814.28;;;8.14;100.00
42633;BME280;28261;53.304;-6.284;2023-02-02T07:42:22;101816.00;;;8.16;100.00
42633;BME280;28261;53.304;-6.284;2023-02-02T07:44:28;101823.03;;;8.17;100.00
42633;BME280;28261;53.304;-6.284;2023-02-02T07:46:32;101823.78;;;8.20;100.00
42633;BME280;28261;53.304;-6.284;2023-02-02T07:48:39;101817.63;;;8.20;100.00
42633;BME280;28261;53.304;-6.284;2023-02-02T07:50:43;101819.41;;;8.19;100.00
42633;BME280;28261;53.304;-6.284;2023-02-02T07:52:48;101808.91;;;8.18;100.00
42633;BME280;28261;53.304;-6.284;2023-02-02T07:54:53;101823.03;;;8.17;100.00
42633;BME280;28261;53.304;-6.284;2023-02-02T07:57:16;101820.38;;;8.17;100.00
42633;BME280;28261;53.304;-6.284;2023-02-02T07:59:21;101814.28;;;8.14;100.00
42633;BME280;28261;53.304;-6.284;2023-02-02T08:01:27;101809.06;;;8.13;100.00
42633;BME280;28261;53.304;-6.284;2023-02-02T08:03:31;101819.69;;;8.11;100.00
42633;BME280;28261;53.304;-6.284;2023-02-02T08:05:35;101824.06;;;8.12;100.00
42633;BME280;28261;53.304;-6.284;2023-02-02T08:07:40;101820.50;;;8.13;100.00
42633;BME280;28261;53.304;-6.284;2023-02-02T08:09:45;101832.84;;;8.13;100.00
42633;BME280;28261;53.304;-6.284;2023-02-02T08:11:50;101828.44;;;8.13;100.00
42633;BME280;28261;53.304;-6.284;2023-02-02T08:13:56;101818.72;;;8.14;100.00
42633;BME280;28261;53.304;-6.284;2023-02-02T08:16:00;101827.47;;;8.16;100.00
42633;BME280;28261;53.304;-6.284;2023-02-02T08:18:05;101826.44;;;8.19;100.00
42633;BME280;28261;53.304;-6.284;2023-02-02T08:20:10;101831.63;;;8.22;100.00
42633;BME280;28261;53.304;-6.284;2023-02-02T08:22:15;101829.78;;;8.24;100.00
42633;BME280;28261;53.304;-6.284;2023-02-02T08:24:21;101827.06;;;8.25;100.00
42633;BME280;28261;53.304;-6.284;2023-02-02T08:26:26;101830.47;;;8.29;100.00
42633;BME280;28261;53.304;-6.284;2023-02-02T08:28:30;101832.13;;;8.32;100.00
42633;BME280;28261;53.304;-6.284;2023-02-02T08:30:34;101826.78;;;8.33;100.00
42633;BME280;28261;53.304;-6.284;2023-02-02T08:32:38;101823.16;;;8.36;100.00
42633;BME280;28261;53.304;-6.284;2023-02-02T08:34:46;101833.72;;;8.36;100.00
42633;BME280;28261;53.304;-6.284;2023-02-02T08:36:53;101828.38;;;8.37;100.00
42633;BME280;28261;53.304;-6.284;2023-02-02T08:39:00;101833.66;;;8.37;100.00
42633;BME280;28261;53.304;-6.284;2023-02-02T08:41:06;101829.22;;;8.38;100.00
42633;BME280;28261;53.304;-6.284;2023-02-02T08:43:10;101832.75;;;8.38;100.00
42633;BME280;28261;53.304;-6.284;2023-02-02T08:45:17;101831.75;;;8.41;100.00
42633;BME280;28261;53.304;-6.284;2023-02-02T08:47:45;101835.25;;;8.41;100.00
42633;BME280;28261;53.304;-6.284;2023-02-02T08:50:09;101831.69;;;8.42;100.00
42633;BME280;28261;53.304;-6.284;2023-02-02T08:52:13;101832.47;;;8.44;100.00
42633;BME280;28261;53.304;-6.284;2023-02-02T08:54:17;101852.69;;;8.47;100.00
42633;BME280;28261;53.304;-6.284;2023-02-02T08:56:21;101840.34;;;8.48;100.00
42633;BME280;28261;53.304;-6.284;2023-02-02T08:58:25;101846.41;;;8.50;100.00
42633;BME280;28261;53.304;-6.284;2023-02-02T09:00:28;101850.66;;;8.54;100.00
42633;BME280;28261;53.304;-6.284;2023-02-02T09:02:32;101856.69;;;8.57;100.00
42633;BME280;28261;53.304;-6.284;2023-02-02T09:04:36;101856.47;;;8.62;100.00
42633;BME280;28261;53.304;-6.284;2023-02-02T09:06:41;101865.03;;;8.69;100.00
42633;BME280;28261;53.304;-6.284;2023-02-02T09:08:46;101867.47;;;8.73;100.00
42633;BME280;28261;53.304;-6.284;2023-02-02T09:10:49;101864.78;;;8.75;100.00
42633;BME280;28261;53.304;-6.284;2023-02-02T09:12:54;101866.41;;;8.77;100.00
42633;BME280;28261;53.304;-6.284;2023-02-02T09:14:57;101858.47;;;8.79;100.00
42633;BME280;28261;53.304;-6.284;2023-02-02T09:17:01;101880.38;;;8.81;100.00
42633;BME280;28261;53.304;-6.284;2023-02-02T09:19:05;101869.75;;;8.83;100.00
42633;BME280;28261;53.304;-6.284;2023-02-02T09:21:12;101867.97;;;8.83;100.00
42633;BME280;28261;53.304;-6.284;2023-02-02T09:23:22;101870.50;;;8.86;100.00
42633;BME280;28261;53.304;-6.284;2023-02-02T09:25:26;101888.00;;;8.89;100.00
42633;BME280;28261;53.304;-6.284;2023-02-02T09:27:30;101888.78;;;8.91;100.00
42633;BME280;28261;53.304;-6.284;2023-02-02T09:29:39;101889.53;;;8.94;100.00
42633;BME280;28261;53.304;-6.284;2023-02-02T09:31:43;101881.53;;;8.96;100.00
42633;BME280;28261;53.304;-6.284;2023-02-02T09:33:48;101879.72;;;8.98;100.00
42633;BME280;28261;53.304;-6.284;2023-02-02T09:35:51;101890.00;;;9.04;100.00
42633;BME280;28261;53.304;-6.284;2023-02-02T09:37:55;101895.16;;;9.07;100.00
42633;BME280;28261;53.304;-6.284;2023-02-02T09:40:00;101896.81;;;9.10;100.00
42633;BME280;28261;53.304;-6.284;2023-02-02T09:42:29;101906.50;;;9.11;100.00
42633;BME280;28261;53.304;-6.284;2023-02-02T09:44:55;101895.00;;;9.12;100.00
42633;BME280;28261;53.304;-6.284;2023-02-02T09:47:10;101900.34;;;9.10;100.00
42633;BME280;28261;53.304;-6.284;2023-02-02T09:49:20;101902.19;;;9.08;100.00
42633;BME280;28261;53.304;-6.284;2023-02-02T09:51:31;101888.19;;;9.06;100.00
42633;BME280;28261;53.304;-6.284;2023-02-02T09:53:43;101897.03;;;9.05;100.00
42633;BME280;28261;53.304;-6.284;2023-02-02T09:55:59;101889.09;;;9.05;100.00
42633;BME280;28261;53.304;-6.284;2023-02-02T09:58:12;101900.59;;;9.04;100.00
42633;BME280;28261;53.304;-6.284;2023-02-02T10:00:24;101896.22;;;9.03;100.00
42633;BME280;28261;53.304;-6.284;2023-02-02T10:02:32;101904.28;;;9.00;100.00
42633;BME280;28261;53.304;-6.284;2023-02-02T10:04:42;101892.88;;;9.00;100.00
42633;BME280;28261;53.304;-6.284;2023-02-02T10:06:50;101891.97;;;8.99;100.00
42633;BME280;28261;53.304;-6.284;2023-02-02T10:09:00;101893.72;;;9.00;100.00
42633;BME280;28261;53.304;-6.284;2023-02-02T10:11:25;101908.81;;;8.98;100.00
42633;BME280;28261;53.304;-6.284;2023-02-02T10:13:32;101911.44;;;8.98;100.00
42633;BME280;28261;53.304;-6.284;2023-02-02T10:15:43;101911.44;;;8.98;100.00
42633;BME280;28261;53.304;-6.284;2023-02-02T10:17:54;101915.84;;;8.97;100.00
42633;BME280;28261;53.304;-6.284;2023-02-02T10:20:04;101923.72;;;8.99;100.00
42633;BME280;28261;53.304;-6.284;2023-02-02T10:22:13;101931.59;;;9.01;100.00
42633;BME280;28261;53.304;-6.284;2023-02-02T10:24:21;101930.75;;;9.00;100.00
42633;BME280;28261;53.304;-6.284;2023-02-02T10:26:31;101926.38;;;8.99;100.00
42633;BME280;28261;53.304;-6.284;2023-02-02T10:28:47;101924.59;;;9.00;100.00
42633;BME280;28261;53.304;-6.284;2023-02-02T10:30:58;101930.66;;;9.02;100.00
42633;BME280;28261;53.304;-6.284;2023-02-02T10:33:05;101935.03;;;9.03;100.00
42633;BME280;28261;53.304;-6.284;2023-02-02T10:35:26;101924.47;;;9.03;100.00
42633;BME280;28261;53.304;-6.284;2023-02-02T10:37:36;101930.59;;;9.03;100.00
42633;BME280;28261;53.304;-6.284;2023-02-02T10:39:56;101934.91;;;9.06;100.00
42633;BME280;28261;53.304;-6.284;2023-02-02T10:42:16;101942.00;;;9.05;100.00
42633;BME280;28261;53.304;-6.284;2023-02-02T10:44:29;101934.91;;;9.06;100.00
42633;BME280;28261;53.304;-6.284;2023-02-02T10:46:37;101930.50;;;9.06;100.00
42633;BME280;28261;53.304;-6.284;2023-02-02T10:48:45;101930.50;;;9.06;100.00
42633;BME280;28261;53.304;-6.284;2023-02-02T10:50:51;101919.84;;;9.08;100.00
42633;BME280;28261;53.304;-6.284;2023-02-02T10:53:00;101930.38;;;9.09;100.00
42633;BME280;28261;53.304;-6.284;2023-02-02T10:55:17;101923.09;;;9.14;100.00
42633;BME280;28261;53.304;-6.284;2023-02-02T10:57:37;101919.50;;;9.15;100.00
42633;BME280;28261;53.304;-6.284;2023-02-02T10:59:49;101931.69;;;9.20;100.00